Wetterdaten: Woche 21.11.16 - 27.11.16 (KW47)
Datum Zeit Temp. A. Feuchte A. Luftdruck Regen Wind Richtung Taupunkt Windchill Windben
21.11.2016 00:00 12,4 C 70 % 1012,1 hPa 0,0 l/m 1,9 km/h N 7,2 C 12,4 C 7,6 km/h
21.11.2016 01:00 11,3 C 75 % 1012,4 hPa 0,0 l/m 0,4 km/h N 7,0 C 11,3 C 5,6 km/h
21.11.2016 02:00 10,7 C 77 % 1012,6 hPa 0,0 l/m 0,0 km/h N 6,8 C 10,7 C 2,8 km/h
21.11.2016 03:00 10,3 C 76 % 1012,4 hPa 0,0 l/m 0,4 km/h N 6,3 C 10,3 C 4,0 km/h
21.11.2016 04:00 10,8 C 76 % 1012,4 hPa 0,0 l/m 3,2 km/h N 6,7 C 10,8 C 11,7 km/h
21.11.2016 05:00 10,6 C 78 % 1012,8 hPa 0,0 l/m 0,4 km/h N 6,9 C 10,6 C 4,4 km/h
21.11.2016 06:00 8,9 C 81 % 1013,2 hPa 0,0 l/m 0,1 km/h N 5,8 C 8,9 C 2,0 km/h
21.11.2016 07:00 9,1 C 83 % 1013,5 hPa 0,0 l/m 0,1 km/h N 6,3 C 9,1 C 2,8 km/h
21.11.2016 08:00 9,6 C 83 % 1013,5 hPa 0,0 l/m 0,7 km/h N 6,9 C 9,6 C 6,8 km/h
21.11.2016 09:00 10,6 C 83 % 1013,6 hPa 0,0 l/m 1,6 km/h N 7,9 C 10,6 C 8,8 km/h
21.11.2016 10:00 11,9 C 83 % 1013,3 hPa 0,0 l/m 2,4 km/h N 9,1 C 11,9 C 12,5 km/h
21.11.2016 11:00 13,3 C 82 % 1012,7 hPa 0,0 l/m 1,9 km/h N 10,2 C 13,3 C 13,3 km/h
21.11.2016 12:00 15,2 C 78 % 1011,9 hPa 0,0 l/m 3,6 km/h N 11,3 C 15,2 C 18,1 km/h
21.11.2016 13:00 16,4 C 73 % 1011,7 hPa 0,0 l/m 3,8 km/h N 11,5 C 16,4 C 15,3 km/h
21.11.2016 14:00 16,6 C 72 % 1011,6 hPa 0,0 l/m 4,5 km/h N 11,4 C 16,6 C 18,1 km/h
21.11.2016 15:00 15,9 C 74 % 1011,9 hPa 0,0 l/m 4,4 km/h N 11,2 C 15,9 C 20,5 km/h
21.11.2016 16:00 14,6 C 77 % 1011,9 hPa 0,0 l/m 2,8 km/h N 10,6 C 14,6 C 11,3 km/h
21.11.2016 17:00 13,4 C 79 % 1012,2 hPa 0,0 l/m 1,8 km/h N 9,8 C 13,4 C 11,3 km/h
21.11.2016 18:00 13,0 C 79 % 1012,3 hPa 0,0 l/m 2,1 km/h N 9,5 C 13,0 C 12,9 km/h
21.11.2016 19:00 12,4 C 80 % 1012,8 hPa 0,0 l/m 0,8 km/h N 9,0 C 12,4 C 5,6 km/h
21.11.2016 20:00 11,4 C 81 % 1013,2 hPa 0,0 l/m 1,5 km/h N 8,3 C 11,4 C 8,4 km/h
21.11.2016 21:00 11,3 C 82 % 1012,9 hPa 0,0 l/m 2,1 km/h N 8,3 C 11,3 C 9,6 km/h
21.11.2016 22:00 10,9 C 82 % 1012,4 hPa 0,0 l/m 0,2 km/h N 7,9 C 10,9 C 4,4 km/h
21.11.2016 23:00 9,9 C 83 % 1012,2 hPa 0,0 l/m 0,2 km/h N 7,1 C 9,9 C 4,0 km/h
22.11.2016 00:00 9,5 C 83 % 1012,0 hPa 0,0 l/m 0,0 km/h N 6,8 C 9,5 C 1,2 km/h
22.11.2016 01:00 10,3 C 83 % 1012,0 hPa 0,0 l/m 0,9 km/h N 7,5 C 10,3 C 6,0 km/h
22.11.2016 02:00 10,4 C 83 % 1012,0 hPa 0,0 l/m 0,1 km/h N 7,6 C 10,4 C 2,0 km/h
22.11.2016 03:00 10,1 C 83 % 1011,9 hPa 0,0 l/m 0,1 km/h N 7,4 C 10,1 C 2,4 km/h
22.11.2016 04:00 10,4 C 83 % 1012,1 hPa 0,0 l/m 0,1 km/h N 7,7 C 10,4 C 3,6 km/h
22.11.2016 05:00 9,9 C 83 % 1012,3 hPa 0,0 l/m 0,3 km/h N 7,1 C 9,9 C 4,8 km/h
22.11.2016 06:00 10,1 C 83 % 1012,9 hPa 0,0 l/m 0,2 km/h N 7,3 C 10,1 C 3,6 km/h
22.11.2016 07:00 9,0 C 83 % 1013,5 hPa 0,0 l/m 0,0 km/h N 6,3 C 9,0 C 0,4 km/h
22.11.2016 08:00 9,4 C 83 % 1014,3 hPa 0,0 l/m 0,1 km/h N 6,7 C 9,4 C 2,8 km/h
22.11.2016 09:00 11,4 C 83 % 1014,5 hPa 0,0 l/m 0,4 km/h N 8,6 C 11,4 C 6,4 km/h
22.11.2016 10:00 14,4 C 80 % 1014,5 hPa 0,0 l/m 1,6 km/h N 10,9 C 14,4 C 9,6 km/h
22.11.2016 11:00 17,4 C 67 % 1014,3 hPa 0,0 l/m 3,7 km/h N 11,2 C 17,4 C 14,1 km/h
22.11.2016 12:00 18,6 C 63 % 1014,2 hPa 0,0 l/m 4,0 km/h N 11,4 C 18,6 C 14,9 km/h
22.11.2016 13:00 18,8 C 62 % 1014,0 hPa 0,0 l/m 4,3 km/h N 11,4 C 18,8 C 18,1 km/h
22.11.2016 14:00 18,2 C 64 % 1014,1 hPa 0,0 l/m 3,3 km/h N 11,3 C 18,2 C 14,9 km/h
22.11.2016 15:00 17,7 C 66 % 1014,3 hPa 0,0 l/m 2,5 km/h N 11,3 C 17,7 C 12,9 km/h
22.11.2016 16:00 16,3 C 71 % 1014,9 hPa 0,0 l/m 1,2 km/h N 10,9 C 16,3 C 6,8 km/h
22.11.2016 17:00 14,9 C 74 % 1015,5 hPa 0,0 l/m 0,3 km/h N 10,3 C 14,9 C 3,2 km/h
22.11.2016 18:00 13,3 C 77 % 1016,4 hPa 0,0 l/m 0,2 km/h N 9,3 C 13,3 C 4,0 km/h
22.11.2016 19:00 11,1 C 80 % 1017,1 hPa 0,0 l/m 0,1 km/h N 7,8 C 11,1 C 3,2 km/h
22.11.2016 20:00 10,4 C 82 % 1017,3 hPa 0,0 l/m 0,2 km/h N 7,4 C 10,4 C 5,2 km/h
22.11.2016 21:00 9,9 C 82 % 1017,5 hPa 0,0 l/m 0,3 km/h N 6,9 C 9,9 C 6,4 km/h
22.11.2016 22:00 9,2 C 83 % 1017,6 hPa 0,0 l/m 0,1 km/h N 6,4 C 9,2 C 2,8 km/h
22.11.2016 23:00 8,9 C 83 % 1017,8 hPa 0,0 l/m 0,2 km/h N 6,1 C 8,9 C 5,6 km/h
23.11.2016 00:00 8,6 C 83 % 1017,8 hPa 0,0 l/m 0,0 km/h N 5,8 C 8,6 C 1,2 km/h
23.11.2016 01:00 7,9 C 83 % 1017,9 hPa 0,0 l/m 0,0 km/h N 5,2 C 7,9 C 2,0 km/h
23.11.2016 02:00 7,0 C 83 % 1018,2 hPa 0,0 l/m 0,0 km/h N 4,4 C 7,0 C 0,4 km/h
23.11.2016 03:00 5,5 C 84 % 1018,4 hPa 0,0 l/m 0,0 km/h N 3,0 C 5,5 C 0,0 km/h
23.11.2016 04:00 4,5 C 84 % 1018,8 hPa 0,0 l/m 0,0 km/h N 2,0 C 4,5 C 0,0 km/h
23.11.2016 05:00 5,2 C 84 % 1019,0 hPa 0,0 l/m 0,0 km/h N 2,6 C 5,2 C 0,0 km/h
23.11.2016 06:00 6,0 C 83 % 1019,5 hPa 0,0 l/m 0,0 km/h N 3,4 C 6,0 C 0,8 km/h
23.11.2016 07:00 6,3 C 83 % 1020,1 hPa 0,0 l/m 0,0 km/h N 3,7 C 6,3 C 0,0 km/h
23.11.2016 08:00 6,6 C 83 % 1020,7 hPa 0,0 l/m 0,0 km/h N 3,9 C 6,6 C 1,2 km/h
23.11.2016 09:00 7,0 C 83 % 1021,2 hPa 0,0 l/m 0,0 km/h N 4,3 C 7,0 C 1,2 km/h
23.11.2016 10:00 7,2 C 83 % 1021,3 hPa 0,0 l/m 0,0 km/h N 4,5 C 7,2 C 1,6 km/h
23.11.2016 11:00 7,5 C 83 % 1021,0 hPa 0,0 l/m 0,0 km/h N 4,8 C 7,5 C 1,2 km/h
23.11.2016 12:00 7,9 C 83 % 1020,8 hPa 0,0 l/m 0,0 km/h N 5,2 C 7,9 C 1,6 km/h
23.11.2016 13:00 8,5 C 83 % 1020,5 hPa 0,0 l/m 0,1 km/h N 5,8 C 8,5 C 2,4 km/h
23.11.2016 14:00 9,1 C 83 % 1020,2 hPa 0,0 l/m 0,1 km/h N 6,3 C 9,1 C 3,2 km/h
23.11.2016 15:00 9,5 C 83 % 1020,1 hPa 0,0 l/m 0,0 km/h N 6,7 C 9,5 C 1,2 km/h
23.11.2016 16:00 9,7 C 83 % 1020,0 hPa 0,0 l/m 0,0 km/h N 7,0 C 9,7 C 1,2 km/h
23.11.2016 17:00 9,6 C 83 % 1020,1 hPa 0,0 l/m 0,0 km/h N 6,9 C 9,6 C 0,8 km/h
23.11.2016 18:00 9,4 C 83 % 1020,1 hPa 0,0 l/m 0,0 km/h N 6,7 C 9,4 C 1,2 km/h
23.11.2016 19:00 9,1 C 83 % 1020,2 hPa 0,0 l/m 0,0 km/h N 6,3 C 9,1 C 2,0 km/h
23.11.2016 20:00 8,5 C 83 % 1020,3 hPa 0,0 l/m 0,0 km/h N 5,8 C 8,5 C 2,0 km/h
23.11.2016 21:00 8,0 C 83 % 1020,4 hPa 0,0 l/m 0,1 km/h N 5,3 C 8,0 C 2,0 km/h
23.11.2016 22:00 7,7 C 83 % 1020,3 hPa 0,0 l/m 0,0 km/h N 5,0 C 7,7 C 0,4 km/h
23.11.2016 23:00 7,6 C 84 % 1020,2 hPa 0,0 l/m 0,0 km/h N 4,9 C 7,6 C 0,4 km/h
24.11.2016 00:00 7,3 C 84 % 1020,1 hPa 0,0 l/m 0,0 km/h N 4,7 C 7,3 C 2,0 km/h
24.11.2016 01:00 7,2 C 84 % 1019,9 hPa 0,0 l/m 0,0 km/h N 4,7 C 7,2 C 0,4 km/h
24.11.2016 02:00 7,2 C 84 % 1019,7 hPa 0,0 l/m 0,0 km/h N 4,7 C 7,2 C 0,0 km/h
24.11.2016 03:00 7,2 C 83 % 1019,6 hPa 0,0 l/m 0,0 km/h N 4,5 C 7,2 C 1,2 km/h
24.11.2016 04:00 6,9 C 84 % 1019,5 hPa 0,0 l/m 0,0 km/h N 4,4 C 6,9 C 1,6 km/h
24.11.2016 05:00 6,5 C 83 % 1019,5 hPa 0,0 l/m 0,0 km/h N 3,9 C 6,5 C 1,2 km/h
24.11.2016 06:00 6,3 C 84 % 1019,6 hPa 0,0 l/m 0,0 km/h N 3,8 C 6,3 C 0,4 km/h
24.11.2016 07:00 6,2 C 83 % 1019,8 hPa 0,0 l/m 0,0 km/h N 3,5 C 6,2 C 0,0 km/h
24.11.2016 08:00 5,9 C 84 % 1020,2 hPa 0,0 l/m 0,0 km/h N 3,4 C 5,9 C 0,0 km/h
24.11.2016 09:00 5,9 C 84 % 1020,5 hPa 0,3 l/m 0,0 km/h N 3,4 C 5,9 C 0,4 km/h
24.11.2016 10:00 5,9 C 84 % 1020,8 hPa 0,0 l/m 0,0 km/h N 3,4 C 5,9 C 2,0 km/h
24.11.2016 11:00 6,0 C 84 % 1020,6 hPa 0,0 l/m 0,1 km/h N 3,5 C 6,0 C 2,8 km/h
24.11.2016 12:00 6,2 C 83 % 1020,6 hPa 0,0 l/m 0,0 km/h N 3,6 C 6,2 C 0,0 km/h
24.11.2016 13:00 6,2 C 84 % 1020,4 hPa 0,0 l/m 0,0 km/h N 3,7 C 6,2 C 0,0 km/h
24.11.2016 14:00 6,3 C 84 % 1020,2 hPa 0,0 l/m 0,0 km/h N 3,8 C 6,3 C 0,0 km/h
24.11.2016 15:00 6,3 C 84 % 1020,1 hPa 0,0 l/m 0,0 km/h N 3,8 C 6,3 C 0,0 km/h
24.11.2016 16:00 6,3 C 84 % 1020,1 hPa 0,0 l/m 0,0 km/h N 3,7 C 6,3 C 0,0 km/h
24.11.2016 17:00 6,2 C 83 % 1020,3 hPa 0,0 l/m 0,0 km/h N 3,6 C 6,2 C 0,0 km/h
24.11.2016 18:00 6,2 C 84 % 1020,4 hPa 0,3 l/m 0,0 km/h N 3,7 C 6,2 C 0,0 km/h
24.11.2016 19:00 6,3 C 83 % 1020,5 hPa 0,0 l/m 0,0 km/h N 3,7 C 6,3 C 0,8 km/h
24.11.2016 20:00 6,5 C 83 % 1020,5 hPa 0,3 l/m 0,0 km/h N 3,9 C 6,5 C 0,0 km/h
24.11.2016 21:00 6,6 C 83 % 1020,6 hPa 0,3 l/m 0,1 km/h N 3,9 C 6,6 C 2,0 km/h
24.11.2016 22:00 6,6 C 83 % 1020,6 hPa 0,0 l/m 0,1 km/h N 3,9 C 6,6 C 2,4 km/h
24.11.2016 23:00 6,6 C 83 % 1020,5 hPa 0,3 l/m 0,0 km/h N 3,9 C 6,6 C 0,4 km/h
25.11.2016 00:00 6,6 C 83 % 1020,2 hPa 0,0 l/m 0,0 km/h N 4,0 C 6,6 C 0,4 km/h
25.11.2016 01:00 6,7 C 83 % 1020,0 hPa 0,3 l/m 0,0 km/h N 4,0 C 6,7 C 0,0 km/h
25.11.2016 02:00 6,6 C 83 % 1019,8 hPa 0,0 l/m 0,0 km/h N 3,9 C 6,6 C 0,4 km/h
25.11.2016 03:00 6,4 C 83 % 1019,5 hPa 0,0 l/m 0,0 km/h N 3,7 C 6,4 C 0,0 km/h
25.11.2016 04:00 6,3 C 83 % 1019,4 hPa 0,0 l/m 0,0 km/h N 3,7 C 6,3 C 0,4 km/h
25.11.2016 05:00 6,2 C 83 % 1019,3 hPa 0,3 l/m 0,0 km/h N 3,5 C 6,2 C 0,0 km/h
25.11.2016 06:00 6,2 C 83 % 1019,3 hPa 0,0 l/m 0,0 km/h N 3,6 C 6,2 C 0,0 km/h
25.11.2016 07:00 6,2 C 83 % 1019,6 hPa 0,3 l/m 0,0 km/h N 3,5 C 6,2 C 0,0 km/h
25.11.2016 08:00 6,3 C 83 % 1019,7 hPa 0,0 l/m 0,0 km/h N 3,6 C 6,3 C 0,0 km/h
25.11.2016 09:00 6,6 C 83 % 1019,8 hPa 0,0 l/m 0,0 km/h N 3,9 C 6,6 C 0,0 km/h
25.11.2016 10:00 6,8 C 83 % 1020,0 hPa 0,3 l/m 0,0 km/h N 4,1 C 6,8 C 0,0 km/h
25.11.2016 11:00 7,0 C 83 % 1019,6 hPa 0,3 l/m 0,0 km/h N 4,3 C 7,0 C 0,8 km/h
25.11.2016 12:00 7,2 C 83 % 1019,4 hPa 0,0 l/m 0,0 km/h N 4,5 C 7,2 C 0,0 km/h
25.11.2016 13:00 7,3 C 83 % 1019,0 hPa 0,0 l/m 0,0 km/h N 4,6 C 7,3 C 0,0 km/h
25.11.2016 14:00 7,2 C 83 % 1018,8 hPa 0,0 l/m 0,0 km/h N 4,5 C 7,2 C 0,0 km/h
25.11.2016 15:00 7,2 C 83 % 1019,0 hPa 0,0 l/m 0,0 km/h N 4,5 C 7,2 C 0,0 km/h
25.11.2016 16:00 7,1 C 83 % 1019,3 hPa 0,3 l/m 0,0 km/h N 4,4 C 7,1 C 1,2 km/h
25.11.2016 17:00 6,9 C 83 % 1019,6 hPa 0,0 l/m 0,0 km/h N 4,3 C 6,9 C 0,0 km/h
25.11.2016 18:00 7,0 C 83 % 1019,8 hPa 0,3 l/m 0,0 km/h N 4,3 C 7,0 C 0,0 km/h
25.11.2016 19:00 7,0 C 83 % 1019,7 hPa 0,0 l/m 0,0 km/h N 4,3 C 7,0 C 0,0 km/h
25.11.2016 20:00 7,0 C 83 % 1019,8 hPa 0,0 l/m 0,0 km/h N 4,3 C 7,0 C 0,0 km/h
25.11.2016 21:00 7,0 C 83 % 1019,9 hPa 0,0 l/m 0,0 km/h N 4,3 C 7,0 C 0,4 km/h
25.11.2016 22:00 7,1 C 83 % 1019,9 hPa 0,0 l/m 0,0 km/h N 4,4 C 7,1 C 0,4 km/h
25.11.2016 23:00 7,1 C 83 % 1019,8 hPa 0,0 l/m 0,0 km/h N 4,4 C 7,1 C 0,0 km/h
26.11.2016 00:00 7,0 C 83 % 1019,5 hPa 0,0 l/m 0,0 km/h N 4,3 C 7,0 C 0,0 km/h
26.11.2016 01:00 7,0 C 83 % 1019,4 hPa 0,0 l/m 0,0 km/h N 4,3 C 7,0 C 0,0 km/h
26.11.2016 02:00 7,1 C 83 % 1019,4 hPa 0,0 l/m 0,0 km/h N 4,4 C 7,1 C 2,0 km/h
26.11.2016 03:00 7,1 C 83 % 1019,3 hPa 0,0 l/m 0,0 km/h N 4,4 C 7,1 C 1,6 km/h
26.11.2016 04:00 6,9 C 83 % 1019,1 hPa 0,0 l/m 0,0 km/h N 4,3 C 6,9 C 1,2 km/h
26.11.2016 05:00 6,9 C 83 % 1019,1 hPa 0,0 l/m 0,0 km/h N 4,2 C 6,9 C 0,8 km/h
26.11.2016 06:00 6,8 C 83 % 1019,0 hPa 0,0 l/m 0,0 km/h N 4,1 C 6,8 C 0,8 km/h
26.11.2016 07:00 6,6 C 83 % 1018,9 hPa 0,0 l/m 0,0 km/h N 3,9 C 6,6 C 0,4 km/h
26.11.2016 08:00 6,2 C 83 % 1018,8 hPa 0,0 l/m 0,0 km/h N 3,5 C 6,2 C 0,8 km/h
26.11.2016 09:00 6,4 C 83 % 1018,8 hPa 0,3 l/m 0,0 km/h N 3,8 C 6,4 C 0,8 km/h
26.11.2016 10:00 7,2 C 83 % 1018,5 hPa 0,0 l/m 0,1 km/h N 4,5 C 7,2 C 2,0 km/h
26.11.2016 11:00 7,9 C 83 % 1017,6 hPa 0,0 l/m 0,2 km/h N 5,2 C 7,9 C 4,8 km/h
26.11.2016 12:00 8,6 C 83 % 1016,9 hPa 0,0 l/m 0,0 km/h N 5,8 C 8,6 C 1,2 km/h
26.11.2016 13:00 8,8 C 83 % 1016,3 hPa 0,0 l/m 0,1 km/h N 6,1 C 8,8 C 2,4 km/h
26.11.2016 14:00 9,1 C 83 % 1015,5 hPa 0,0 l/m 0,0 km/h N 6,4 C 9,1 C 0,4 km/h
26.11.2016 15:00 8,8 C 83 % 1015,0 hPa 0,0 l/m 0,0 km/h N 6,1 C 8,8 C 0,0 km/h
26.11.2016 16:00 7,6 C 84 % 1015,0 hPa 0,0 l/m 0,0 km/h N 5,0 C 7,6 C 0,0 km/h
26.11.2016 17:00 7,8 C 83 % 1015,0 hPa 0,0 l/m 0,0 km/h N 5,2 C 7,8 C 0,0 km/h
26.11.2016 18:00 8,1 C 83 % 1015,0 hPa 0,0 l/m 3,3 km/h N 5,4 C 8,2 C 10,5 km/h
26.11.2016 19:00 7,9 C 84 % 1015,3 hPa 0,0 l/m 4,6 km/h N 5,2 C 7,7 C 13,7 km/h
26.11.2016 20:00 7,9 C 84 % 1015,4 hPa 0,0 l/m 5,4 km/h N 5,3 C 7,9 C 16,5 km/h
26.11.2016 21:00 7,9 C 83 % 1015,4 hPa 0,0 l/m 5,5 km/h N 5,3 C 7,8 C 17,3 km/h
26.11.2016 22:00 8,0 C 82 % 1015,3 hPa 0,0 l/m 8,2 km/h N 5,0 C 6,6 C 21,7 km/h
26.11.2016 23:00 8,0 C 80 % 1015,3 hPa 0,0 l/m 7,3 km/h N 4,7 C 7,2 C 21,3 km/h
27.11.2016 00:00 7,8 C 79 % 1014,9 hPa 0,0 l/m 5,1 km/h N 4,4 C 7,8 C 18,5 km/h
27.11.2016 01:00 7,7 C 80 % 1014,5 hPa 0,0 l/m 4,8 km/h N 4,5 C 7,7 C 18,5 km/h
27.11.2016 02:00 7,7 C 80 % 1014,2 hPa 0,0 l/m 4,1 km/h N 4,5 C 7,6 C 13,3 km/h
27.11.2016 03:00 7,7 C 81 % 1013,9 hPa 0,0 l/m 2,2 km/h N 4,6 C 7,7 C 15,7 km/h
27.11.2016 04:00 7,7 C 81 % 1013,6 hPa 0,0 l/m 3,8 km/h N 4,7 C 7,7 C 14,5 km/h
27.11.2016 05:00 7,7 C 82 % 1013,3 hPa 0,0 l/m 7,4 km/h N 4,8 C 6,8 C 20,5 km/h
27.11.2016 06:00 7,7 C 81 % 1013,1 hPa 0,0 l/m 5,7 km/h N 4,6 C 7,1 C 18,1 km/h
27.11.2016 07:00 7,7 C 80 % 1013,1 hPa 0,0 l/m 6,8 km/h N 4,5 C 7,2 C 18,5 km/h
27.11.2016 08:00 7,8 C 79 % 1013,0 hPa 0,0 l/m 7,9 km/h N 4,5 C 6,7 C 23,3 km/h
27.11.2016 09:00 8,4 C 76 % 1012,6 hPa 0,0 l/m 12,6 km/h N 4,3 C 4,3 C 28,6 km/h
27.11.2016 10:00 9,0 C 74 % 1012,8 hPa 0,0 l/m 13,4 km/h N 4,5 C 4,7 C 33,0 km/h
27.11.2016 11:00 9,4 C 70 % 1012,6 hPa 0,0 l/m 12,5 km/h N 4,2 C 5,5 C 31,4 km/h
27.11.2016 12:00 9,3 C 69 % 1012,5 hPa 0,0 l/m 12,8 km/h N 3,8 C 5,3 C 32,6 km/h
27.11.2016 13:00 8,8 C 72 % 1012,3 hPa 0,0 l/m 12,3 km/h N 3,9 C 5,0 C 29,8 km/h
27.11.2016 14:00 7,9 C 78 % 1012,5 hPa 0,3 l/m 6,8 km/h N 4,2 C 7,1 C 19,3 km/h
27.11.2016 15:00 6,9 C 83 % 1012,8 hPa 1,0 l/m 4,2 km/h N 4,2 C 6,9 C 12,9 km/h
27.11.2016 16:00 5,5 C 83 % 1013,6 hPa 1,3 l/m 8,7 km/h N 2,8 C 3,5 C 24,5 km/h
27.11.2016 17:00 5,4 C 81 % 1014,0 hPa 0,0 l/m 6,0 km/h N 2,4 C 5,3 C 17,7 km/h
27.11.2016 18:00 5,4 C 80 % 1014,5 hPa 0,0 l/m 5,4 km/h N 2,1 C 5,1 C 15,3 km/h
27.11.2016 19:00 5,0 C 77 % 1015,2 hPa 0,0 l/m 4,7 km/h N 1,2 C 5,0 C 16,9 km/h
27.11.2016 20:00 4,6 C 76 % 1015,7 hPa 0,0 l/m 5,7 km/h N 0,7 C 4,4 C 18,9 km/h
27.11.2016 21:00 4,2 C 73 % 1016,1 hPa 0,0 l/m 7,4 km/h N -0,2 C 3,3 C 21,7 km/h
27.11.2016 22:00 4,2 C 72 % 1016,2 hPa 0,0 l/m 8,4 km/h N -0,4 C 2,4 C 24,1 km/h
27.11.2016 23:00 4,0 C 69 % 1016,5 hPa 0,0 l/m 6,6 km/h N -1,3 C 3,3 C 18,5 km/h
Min-Datum _ 27.11.16 22.11.16 21.11.16 - 21.11.16 - 27.11.16 27.11.16 21.11.16
_ Min-Zeit 23:45 12:30 12:45 - 02:00 - 23:15 16:15 06:15
Minimum _ 3,8 C 62 % 1011,5 hPa - 0,0 km/h - -1,4 C 1,2 C 0,0 km/h
Max-Datum _ 22.11.16 23.11.16 23.11.16 27.11.16 27.11.16 - 21.11.16 22.11.16 27.11.16
_ Max-Zeit 12:45 02:45 10:00 16:00 10:00 - 13:00 12:45 10:30
Maximum _ 18,9 C 84 % 1021,4 hPa 1,3 l/m 15,4 km/h
N
- 11,7 C 18,9 C 38,6 km/h
N
Durchschnitt _ 8,6 C 81 % 1016,8 hPa #6,0 l/m 1,6 km/h N 5,4 C 8,4 C 6,3 km/h